Ergebnisliste vom: 30.04.2005 - Lychener Seen-Lauf - 3km

weitere Ergebnisse >>

Platz Pl.m Pl.w Stnr. Name,Vorname Verein GJ AK Akm Akw Endzeit RŘckst.
1 1   1240 Becker, Jan-Ole MTV W├╝nsdorf 94 MSC 1   0:11:13 0:00:00
2 2   1209 Zawetzki, David SV Fortuna Schm├Âlln 96 MSD 1   0:12:04 0:00:51
3 3   1201 Sternkiker, Robin Schwedter Hasen 94 MSC 2   0:12:05 0:00:52
4 4   1218 Vitense, Philipp SV Fortuna Schm├Âlln 95 MSC 3   0:12:08 0:00:55
5 5   1266 Luther, Florian Sch├Ânower F├╝chse 95 MSC 4   0:12:09 0:00:56
6 6   794 Bauer, Marcel Eberswalde 92 MSB 1   0:12:19 0:01:06
7 7   1217 Schultz, Felix SV Fortuna Schm├Âlln 95 MSC 5   0:12:24 0:01:11
8 8   1239 Sadewasser, Philipp SV Stahl Hennigsdorf 94 MSC 6   0:12:25 0:01:12
9 9   1223 Spro├čmann, Tobias SV Fortuna Schm├Âlln 93 MSB 2   0:12:33 0:01:20
10   1 1238 v. Sychowski, Franziska SV Stahl Hennigsdorf 93 WSB   1 0:12:39 0:01:26
11 10   1143 Kehl, Jim Schwedter Hasen 93 MSB 3   0:12:41 0:01:28
12   2 1236 Lehmann, Inga SV Stahl Hennigsdorf 94 WSC   1 0:12:42 0:01:29
13 11   1211 Strohfeld, Moritz SV Fortuna Schm├Âlln 96 MSD 2   0:12:44 0:01:31
14 12   781 Theel, Hannes Lupus Team 97 MSD 3   0:12:46 0:01:33
15 13   1212 Busse, Tim SV Fortuna Schm├Âlln 96 MSD 4   0:12:52 0:01:39
16 14   1219 Schirmer, Benjamin SV Fortuna Schm├Âlln 95 MSC 7   0:12:53 0:01:40
16 14   1282 Klette, Daniel LC J├╝terbog 92 MSB 4   0:12:53 0:01:40
18 16   1142 Steinberg, Ronny Schwedter Hasen 93 MSB 5   0:12:54 0:01:41
19 17   1226 Acksel, Benjamin SV Fortuna Schm├Âlln 92 MSB 6   0:13:00 0:01:47
20 18   1224 Steinberg, Rudi SV Fortuna Schm├Âlln 92 MSB 7   0:13:06 0:01:53
21   3 1197 Hammermeister, Christin Pannwitz-Grundschule Lychen 92 WSB   2 0:13:08 0:01:55
22 19   1121 L├Âhrs, Johannes Casekower Schnecken 92 MSB 8   0:13:11 0:01:58
23 20   1123 L├Âhrs, Christopher Casekower Schnecken 93 MSB 9   0:13:13 0:02:00
24 21   1210 Dietz, Jean SV Fortuna Schm├Âlln 96 MSD 5   0:13:18 0:02:05
25 22   1289 Davids, Christopher Pannwitz-Grundschule Lychen 95 MSC 8   0:13:20 0:02:07
26 23   1280 Schulze, Matthias LC J├╝terbog 92 MSB 10   0:13:30 0:02:17
27   4 1199 Kowatzki, Carolin Pannwitz-Grundschule Lychen 93 WSB   3 0:13:32 0:02:19
28 24   1297 Boer, Steffen Pannwitz-Grundschule Lychen 91 MSA 1   0:13:36 0:02:23
29 25   1125 Bechly, Maximilian Berlin 93 MSB 11   0:13:38 0:02:25
30   5 1298 Thum, Laura Pannwitz-Grundschule Lychen 94 WSC   2 0:13:42 0:02:29
31   6 1198 Sewert, Vivien Pannwitz-Grundschule Lychen 92 WSB   4 0:13:44 0:02:31
32   7 1299 Thum, Alma Pannwitz-Grundschule Lychen 92 WSB   5 0:13:45 0:02:32
33   8 1195 Baranowska, Joanna Gimnazjum Czaplinek 91 WSA   1 0:13:49 0:02:36
34 26   1193 Sobczak, Adrian Gimnazjum Czaplinek 91 MSA 2   0:13:51 0:02:38
35 27   1264 Gerber, Jonathan Sch├Ânower F├╝chse 96 MSD 6   0:13:54 0:02:41
36   9 1206 Petrauschke, Lisa SV Fortuna Schm├Âlln 96 WSD   1 0:14:04 0:02:51
37 28   799 Mickein, Willi Schwedter Hasen 96 MSD 7   0:14:07 0:02:54
38 29   1267 Hintze, Daniel Sch├Ânower F├╝chse 95 MSC 9   0:14:11 0:02:58
39 30   1296 Lenz, Felix Pannwitz-Grundschule Lychen 93 MSB 12   0:14:16 0:03:03
40 31   787 Vorbringer, Peter Prenzlau 97 MSD 8   0:14:18 0:03:05
41   10 1235 Urich, Tabatha SV Stahl Hennigsdorf 95 WSC   3 0:14:19 0:03:06
42 32   1284 Bernt, Franz Pannwitz-Grundschule Lychen 96 MSD 9   0:14:21 0:03:08
43 33   1202 Sternkiker, Ricky Schwedter Hasen 98 MSD 10   0:14:24 0:03:11
44 34   1287 Rempt, Frank Pannwitz-Grundschule Lychen 95 MSC 10   0:14:26 0:03:13
45 35   1244 Franze, Frederic Schwedter Hasen 95 MSC 11   0:14:27 0:03:14
46 36   1179 Schwaisch al Ani, Kilian Prenzlauer Judo SV 96 MSD 11   0:14:44 0:03:31
47   11 1207 N├╝chterlein, Lucie SV Fortuna Schm├Âlln 96 WSD   2 0:14:51 0:03:38
48   12 1166 Jancz, Karolina Polen 91 WSA   2 0:15:11 0:03:58
48   12 1194 Kryszewska, Katarzyna Gimnazjum Czaplinek 91 WSA   2 0:15:11 0:03:58
50   14 1215 Busse, Jenny SV Fortuna Schm├Âlln 95 WSC   4 0:15:19 0:04:06
51 37   797 Mickein, Emil Schwedter Hasen 96 MSD 12   0:15:20 0:04:07
52 38   1283 Kunze, Jan-Felix Pannwitz-Grundschule Lychen 96 MSD 13   0:15:23 0:04:10
53   15 1170 Zabel, Dana Lychen 96 WSD   3 0:15:28 0:04:15
54   16 1171 Zabel, Lydia Lychen 95 WSC   5 0:15:30 0:04:17
55 39   1176 Voitus, G├╝nter F├╝rstenberg 37 M65 1   0:15:36 0:04:23
56   17 1269 Braun, Sabrina Lychen 88 WJB   1 0:15:53 0:04:40
57   18 1279 Graf, Heidi LC J├╝terbog 93 WSB   6 0:15:56 0:04:43
58   19 1272 Gro├č, Kerstin SG Einheit Zepernick 65 W40   1 0:15:58 0:04:45
59 40   1234 Sieh, David SV Fortuna Schm├Âlln 97 MSD 14   0:16:08 0:04:55
60   20 1263 Villwock, Elisa Sch├Ânower F├╝chse 96 WSD   4 0:16:16 0:05:03
61 41   1246 Dokov, Peter Schwedter Hasen 95 MSC 12   0:16:21 0:05:08
62   21 1241 Papendieck, Sophie Schwedter Hasen 96 WSD   5 0:16:23 0:05:10
63 42   1127 Sydow, Daniel Bredereiche 92 MSB 13   0:16:29 0:05:16
64   22 1265 Gerber, Alina Sch├Ânower F├╝chse 98 WSD   6 0:16:37 0:05:24
65 43   1249 Rosenthal, Benjamin Schwedter Hasen 96 MSD 15   0:16:48 0:05:35
66   23 1271 Sachse, Kathrin SG Einheit Zepernick 89 WJB   2 0:16:50 0:05:37
67 44   1274 Sachse, Lutz SG Einheit Zepernick 60 M45 1   0:16:51 0:05:38
68   24 1270 Jekel, Susann Lychen 88 WJB   3 0:16:52 0:05:39
69   25 1245 Blichmann, Jennifer Schwedter Hasen 97 WSD   7 0:16:54 0:05:41
70 45   1181 Jehle, Luzie Berlin 94 MSC 13   0:17:22 0:06:09
71   26 1237 Itzeck, Johanna SV Stahl Hennigsdorf 93 WSB   7 0:17:43 0:06:30
72   27 1276 Walpuski, Franziska LC J├╝terbog 94 WSC   6 0:17:45 0:06:32
73   28 1204 Jahns, Josephine Temlin 70 W35   1 0:17:47 0:06:34
73   28 1228 Jahns, Leah Templin 96 WSD   8 0:17:47 0:06:34
75   30 1275 Schulze, Isabell LC J├╝terbog 95 WSC   7 0:17:55 0:06:42
76   31 1273 Sachse, Anka SG Einheit Zepernick 61 W40   2 0:18:22 0:07:09
77 46   1231 Busse, Tom SV Fortuna Schm├Âlln 96 MSD 16   0:18:33 0:07:20
78   32 1205 Trier, Adelheid Berlin 50 W55   1 0:22:09 0:10:56
79 47   1130 K├Ąstner, Christoph Hamburg 80 M20 1   0:26:05 0:14:52
80 48   1288 G├╝ntzschel, R├╝diger Pannwitz-Grundschule Lychen 95 MSC 14   0:26:32 0:15:19
(c) 1990-2020 Blue Wonder Sport Promotion - Andreas Burow - Zeitnahme & Auswertung - www.Triathlon-Service.de